createdAt,value
2017-11-25T00:01:46.661Z,97.46
2017-11-25T00:02:46.635Z,97.65
2017-11-25T00:05:30.014Z,97.17
2017-11-25T00:06:29.972Z,97.65
2017-11-25T00:09:14.374Z,97.46
2017-11-25T00:10:14.331Z,98.03
2017-11-25T00:12:58.269Z,97.65
2017-11-25T00:13:57.692Z,97.84
2017-11-25T00:16:43.116Z,97.65
2017-11-25T00:17:42.033Z,98.03
2017-11-25T00:20:26.440Z,97.27
2017-11-25T00:21:26.393Z,97.27
2017-11-25T00:24:19.551Z,97.27
2017-11-25T00:25:18.425Z,97.65
2017-11-25T00:28:02.779Z,97.36
2017-11-25T00:31:15.053Z,96.70
2017-11-25T00:32:15.944Z,96.79
2017-11-25T00:34:59.396Z,96.70
2017-11-25T00:35:58.359Z,96.98
2017-11-25T00:38:47.400Z,96.89
2017-11-25T00:39:46.401Z,96.70
2017-11-25T00:42:23.075Z,96.51
2017-11-25T00:43:23.094Z,96.79
2017-11-25T00:44:23.034Z,96.41
2017-11-25T00:45:23.044Z,96.41
2017-11-25T00:46:23.018Z,97.17
2017-11-25T00:47:23.007Z,97.08
2017-11-25T00:48:23.008Z,96.89
2017-11-25T00:49:23.686Z,96.70
2017-11-25T00:50:23.000Z,96.60
2017-11-25T00:51:22.982Z,96.89
2017-11-25T00:52:22.963Z,96.12
2017-11-25T00:53:22.970Z,96.03
2017-11-25T00:54:22.954Z,96.03
2017-11-25T00:55:23.636Z,96.60
2017-11-25T00:56:22.939Z,95.94
2017-11-25T00:57:23.649Z,96.31
2017-11-25T00:58:22.927Z,95.56
2017-11-25T00:59:22.943Z,95.27
2017-11-25T01:00:22.917Z,95.98
2017-11-25T01:01:22.906Z,95.70
2017-11-25T01:02:23.629Z,96.17
2017-11-25T01:03:23.629Z,96.46
2017-11-25T01:04:22.883Z,96.17
2017-11-25T01:05:37.635Z,96.17
2017-11-25T01:06:28.109Z,96.51
2017-11-25T01:07:28.087Z,95.79
2017-11-25T01:08:28.083Z,95.79
2017-11-25T01:09:30.630Z,95.65
2017-11-25T01:10:28.636Z,95.46
2017-11-25T01:11:34.633Z,95.75
2017-11-25T01:12:28.063Z,95.94
2017-11-25T01:13:28.048Z,95.75
2017-11-25T01:14:28.037Z,95.75
2017-11-25T01:15:28.040Z,95.75
2017-11-25T01:16:28.650Z,95.75
2017-11-25T01:17:28.652Z,96.03
2017-11-25T01:18:30.664Z,95.27
2017-11-25T01:19:28.020Z,96.12
2017-11-25T01:20:28.018Z,95.84
2017-11-25T01:21:27.998Z,95.75
2017-11-25T01:22:27.993Z,95.17
2017-11-25T01:23:27.995Z,95.27
2017-11-25T01:24:28.648Z,95.17
2017-11-25T01:25:34.650Z,94.79
2017-11-25T01:26:27.956Z,94.79
2017-11-25T01:27:27.948Z,95.56
2017-11-25T01:28:27.947Z,95.65
2017-11-25T01:29:27.941Z,95.46
2017-11-25T01:30:27.929Z,94.89
2017-11-25T01:31:27.934Z,94.89
2017-11-25T01:32:27.916Z,95.56
2017-11-25T01:33:28.661Z,95.27
2017-11-25T01:34:27.956Z,95.36
2017-11-25T01:35:28.659Z,95.27
2017-11-25T01:36:27.890Z,95.36
2017-11-25T01:37:27.882Z,95.17
2017-11-25T01:38:27.881Z,95.65
2017-11-25T01:39:28.670Z,94.98
2017-11-25T01:40:28.654Z,95.36
2017-11-25T01:41:27.849Z,95.56
2017-11-25T01:42:30.660Z,94.51
2017-11-25T01:43:27.836Z,94.89
2017-11-25T01:44:27.829Z,95.56
2017-11-25T01:45:27.821Z,95.27
2017-11-25T01:46:28.662Z,95.17
2017-11-25T01:47:27.803Z,95.46
2017-11-25T01:48:28.663Z,95.56
2017-11-25T01:49:27.804Z,95.17
2017-11-25T01:50:27.783Z,95.46
2017-11-25T01:51:27.771Z,95.65
2017-11-25T01:52:27.767Z,95.65
2017-11-25T01:53:27.759Z,95.46
2017-11-25T01:54:27.750Z,95.75
2017-11-25T01:55:27.746Z,95.75
2017-11-25T01:56:27.743Z,95.65
2017-11-25T01:57:30.664Z,95.94
2017-11-25T01:58:27.722Z,95.36
2017-11-25T01:59:27.716Z,95.56
2017-11-25T02:00:27.711Z,95.36
2017-11-25T02:01:27.709Z,95.27
2017-11-25T02:02:27.711Z,95.56
2017-11-25T02:03:27.685Z,95.75
2017-11-25T02:04:30.664Z,95.84
2017-11-25T02:05:27.675Z,95.94
2017-11-25T02:06:28.163Z,95.75
2017-11-25T02:07:27.665Z,95.65
2017-11-25T02:08:34.164Z,95.84
2017-11-25T02:09:27.640Z,95.46
2017-11-25T02:10:27.639Z,95.27
2017-11-25T02:11:27.628Z,95.84
2017-11-25T02:12:27.626Z,95.36
2017-11-25T02:13:27.618Z,95.56
2017-11-25T02:14:27.614Z,95.56
2017-11-25T02:15:27.602Z,95.36
2017-11-25T02:16:27.594Z,95.27
2017-11-25T02:17:27.590Z,95.27
2017-11-25T02:18:28.173Z,95.56
2017-11-25T02:19:27.570Z,95.65
2017-11-25T02:20:27.569Z,95.36
2017-11-25T02:21:30.173Z,95.17
2017-11-25T02:22:30.178Z,95.46
2017-11-25T02:22:39.553Z,95.17
2017-11-25T02:24:27.533Z,94.89
2017-11-25T02:25:27.545Z,94.89
2017-11-25T02:26:28.174Z,95.65
2017-11-25T02:27:27.514Z,95.08
2017-11-25T02:28:28.175Z,95.27
2017-11-25T02:29:28.183Z,95.56
2017-11-25T02:30:27.492Z,95.56
2017-11-25T02:31:27.487Z,96.03
2017-11-25T02:32:27.479Z,95.46
2017-11-25T02:33:28.200Z,95.46
2017-11-25T02:34:34.179Z,95.27
2017-11-25T02:35:27.466Z,95.46
2017-11-25T02:36:30.176Z,95.27
2017-11-25T02:37:27.441Z,94.51
2017-11-25T02:38:27.429Z,94.65
2017-11-25T02:39:27.424Z,94.65
2017-11-25T02:40:28.203Z,94.74
2017-11-25T02:41:27.422Z,94.74
2017-11-25T02:42:28.176Z,94.98
2017-11-25T02:43:28.186Z,94.74
2017-11-25T02:44:28.183Z,95.03
2017-11-25T02:45:28.189Z,94.84
2017-11-25T02:46:27.375Z,94.84
2017-11-25T02:47:27.366Z,94.27
2017-11-25T02:48:30.187Z,94.74
2017-11-25T02:49:28.184Z,94.84
2017-11-25T02:50:28.184Z,94.84
2017-11-25T02:51:27.340Z,95.03
2017-11-25T02:52:30.188Z,94.84
2017-11-25T02:53:30.191Z,94.84
2017-11-25T02:54:27.329Z,94.56
2017-11-25T02:55:30.185Z,94.56
2017-11-25T02:56:28.188Z,94.37
2017-11-25T02:57:27.314Z,94.65
2017-11-25T02:58:30.188Z,94.74
2017-11-25T02:59:28.193Z,94.08
2017-11-25T03:00:27.273Z,94.37
2017-11-25T03:01:27.266Z,93.98
2017-11-25T03:02:27.258Z,94.08
2017-11-25T03:03:28.187Z,93.51
2017-11-25T03:04:49.199Z,93.89
2017-11-25T03:05:39.666Z,93.41
2017-11-25T03:06:42.190Z,93.79
2017-11-25T03:07:40.195Z,93.89
2017-11-25T03:08:39.647Z,93.89
2017-11-25T03:09:39.644Z,93.98
2017-11-25T03:10:39.629Z,93.60
2017-11-25T03:11:39.626Z,93.60
2017-11-25T03:12:39.611Z,93.60
2017-11-25T03:13:42.194Z,93.51
2017-11-25T03:14:40.207Z,93.79
2017-11-25T03:15:40.197Z,93.89
2017-11-25T03:16:39.589Z,93.79
2017-11-25T03:17:39.586Z,93.89
2017-11-25T03:18:39.571Z,93.51
2017-11-25T03:19:39.558Z,94.37
2017-11-25T03:21:00.554Z,94.27
2017-11-25T03:21:51.076Z,94.84
2017-11-25T03:22:51.065Z,94.74
2017-11-25T03:23:51.053Z,94.37
2017-11-25T03:24:51.698Z,94.74
2017-11-25T03:25:51.697Z,94.93
2017-11-25T03:26:51.700Z,94.65
2017-11-25T03:27:51.027Z,94.84
2017-11-25T03:28:51.701Z,95.22
2017-11-25T03:29:51.005Z,95.32
2017-11-25T03:30:50.997Z,95.98
2017-11-25T03:32:05.707Z,96.17
2017-11-25T03:32:57.200Z,95.98
2017-11-25T03:33:57.203Z,96.08
2017-11-25T03:34:56.701Z,95.79
2017-11-25T03:35:56.200Z,96.17
2017-11-25T03:36:56.708Z,96.26
2017-11-25T03:37:56.183Z,95.79
2017-11-25T03:38:56.176Z,95.60
2017-11-25T03:39:56.705Z,95.98
2017-11-25T03:40:56.156Z,95.70
2017-11-25T03:41:56.704Z,95.32
2017-11-25T03:42:56.143Z,95.41
2017-11-25T03:43:56.132Z,95.36
2017-11-25T03:44:56.123Z,95.12
2017-11-25T03:45:56.119Z,94.84
2017-11-25T03:46:56.109Z,94.79
2017-11-25T03:47:56.101Z,94.79
2017-11-25T03:48:56.705Z,94.51
2017-11-25T03:49:56.086Z,94.89
2017-11-25T03:50:56.078Z,94.32
2017-11-25T03:51:56.075Z,94.22
2017-11-25T03:52:56.063Z,93.75
2017-11-25T03:53:56.051Z,93.75
2017-11-25T03:54:56.042Z,93.46
2017-11-25T03:55:56.037Z,94.03
2017-11-25T03:56:56.033Z,94.13
2017-11-25T03:57:56.021Z,94.13
2017-11-25T03:58:56.015Z,94.79
2017-11-25T03:59:56.010Z,94.42
2017-11-25T04:00:56.709Z,94.60
2017-11-25T04:01:55.991Z,94.89
2017-11-25T04:02:55.984Z,94.22
2017-11-25T04:03:55.975Z,94.42
2017-11-25T04:04:55.967Z,94.42
2017-11-25T04:05:55.961Z,94.22
2017-11-25T04:06:56.713Z,94.89
2017-11-25T04:07:55.964Z,94.89
2017-11-25T04:08:56.714Z,94.79
2017-11-25T04:09:55.931Z,94.51
2017-11-25T04:10:55.930Z,94.79
2017-11-25T04:11:55.916Z,94.98
2017-11-25T04:12:58.719Z,94.79
2017-11-25T04:13:55.903Z,94.70
2017-11-25T04:14:55.888Z,94.22
2017-11-25T04:15:55.880Z,94.32
2017-11-25T04:16:55.867Z,94.60
2017-11-25T04:17:55.864Z,94.32
2017-11-25T04:18:55.864Z,93.94
2017-11-25T04:19:55.848Z,94.03
2017-11-25T04:20:55.859Z,93.55
2017-11-25T04:21:55.833Z,93.46
2017-11-25T04:22:55.826Z,93.37
2017-11-25T04:23:55.835Z,94.03
2017-11-25T04:24:55.817Z,93.46
2017-11-25T04:25:55.816Z,93.65
2017-11-25T04:26:55.793Z,93.55
2017-11-25T04:27:58.727Z,93.75
2017-11-25T04:28:55.774Z,93.55
2017-11-25T04:29:55.792Z,93.46
2017-11-25T04:30:55.756Z,93.55
2017-11-25T04:31:55.751Z,93.84
2017-11-25T04:32:56.721Z,93.84
2017-11-25T04:33:56.728Z,93.75
2017-11-25T04:34:56.727Z,93.84
2017-11-25T04:35:56.229Z,93.84
2017-11-25T04:36:55.715Z,93.55
2017-11-25T04:37:55.707Z,93.75
2017-11-25T04:38:55.699Z,93.18
2017-11-25T04:39:58.235Z,93.23
2017-11-25T04:40:55.689Z,92.99
2017-11-25T04:41:56.223Z,93.18
2017-11-25T04:42:55.661Z,93.18
2017-11-25T04:43:55.655Z,92.70
2017-11-25T04:44:55.646Z,93.84
2017-11-25T04:45:55.638Z,93.08
2017-11-25T04:46:55.630Z,93.18
2017-11-25T04:47:55.627Z,93.08
2017-11-25T04:48:56.233Z,92.61
2017-11-25T04:49:55.613Z,93.27
2017-11-25T04:50:55.606Z,92.99
2017-11-25T04:51:55.597Z,92.80
2017-11-25T04:52:55.584Z,93.08
2017-11-25T04:53:55.573Z,92.70
2017-11-25T04:54:56.233Z,93.08
2017-11-25T04:55:55.556Z,92.80
2017-11-25T04:56:55.548Z,93.75
2017-11-25T04:57:55.545Z,92.80
2017-11-25T04:58:55.535Z,93.18
2017-11-25T04:59:55.542Z,93.18
2017-11-25T05:00:55.518Z,92.70
2017-11-25T05:01:55.513Z,93.37
2017-11-25T05:02:55.502Z,93.27
2017-11-25T05:03:55.498Z,92.99
2017-11-25T05:04:55.492Z,93.37
2017-11-25T05:05:55.475Z,92.66
2017-11-25T05:06:55.467Z,92.66
2017-11-25T05:07:56.234Z,93.04
2017-11-25T05:08:55.458Z,92.75
2017-11-25T05:09:55.442Z,92.13
2017-11-25T05:10:55.437Z,92.75
2017-11-25T05:11:55.449Z,92.37
2017-11-25T05:12:55.420Z,92.27
2017-11-25T05:13:55.420Z,91.71
2017-11-25T05:14:55.415Z,91.13
2017-11-25T05:15:55.398Z,92.18
2017-11-25T05:16:55.404Z,92.37
2017-11-25T05:17:55.380Z,92.27
2017-11-25T05:18:55.372Z,92.75
2017-11-25T05:19:55.372Z,92.18
2017-11-25T05:20:55.366Z,91.80
2017-11-25T05:21:55.348Z,91.71
2017-11-25T05:22:55.338Z,91.23
2017-11-25T05:23:55.334Z,91.33
2017-11-25T05:24:55.322Z,91.13
2017-11-25T05:25:55.314Z,91.23
2017-11-25T05:26:55.305Z,91.23
2017-11-25T05:27:56.240Z,91.80
2017-11-25T05:28:55.290Z,91.52
2017-11-25T05:29:55.284Z,91.61
2017-11-25T05:30:55.280Z,91.71
2017-11-25T05:31:55.271Z,91.23
2017-11-25T05:32:56.245Z,91.04
2017-11-25T05:33:55.248Z,91.33
2017-11-25T05:34:57.745Z,91.52
2017-11-25T05:35:55.232Z,91.23
2017-11-25T05:36:55.221Z,91.33
2017-11-25T05:37:55.236Z,90.56
2017-11-25T05:38:55.207Z,90.66
2017-11-25T05:39:55.772Z,90.56
2017-11-25T05:40:55.187Z,90.56
2017-11-25T05:41:55.182Z,90.00
2017-11-25T05:42:55.745Z,90.75
2017-11-25T05:43:55.164Z,90.19
2017-11-25T05:44:55.178Z,90.19
2017-11-25T05:45:55.750Z,90.56
2017-11-25T05:46:55.139Z,91.23
2017-11-25T05:47:55.131Z,91.23
2017-11-25T05:48:55.753Z,91.13
2017-11-25T05:49:55.114Z,91.23
2017-11-25T05:50:55.111Z,91.23
2017-11-25T05:51:55.108Z,91.13
2017-11-25T05:52:55.091Z,90.75
2017-11-25T05:53:55.084Z,90.85
2017-11-25T05:54:55.073Z,90.85
2017-11-25T05:55:55.064Z,91.33
2017-11-25T05:56:55.052Z,91.33
2017-11-25T05:57:55.060Z,91.04
2017-11-25T05:58:55.055Z,91.23
2017-11-25T05:59:55.036Z,91.33
2017-11-25T06:01:03.703Z,91.23
2017-11-25T06:03:50.999Z,91.23
2017-11-25T06:07:02.214Z,91.23
2017-11-25T06:07:53.494Z,90.66
2017-11-25T06:09:01.165Z,90.37
2017-11-25T06:11:46.580Z,90.19
2017-11-25T06:12:46.540Z,90.56
2017-11-25T06:15:33.799Z,90.94
2017-11-25T06:16:32.930Z,90.75
2017-11-25T06:19:09.672Z,90.66
2017-11-25T06:20:09.806Z,91.13
2017-11-25T06:22:54.008Z,90.56
2017-11-25T06:23:53.996Z,91.13
2017-11-25T06:26:38.429Z,91.04
2017-11-25T06:27:38.897Z,90.94
2017-11-25T06:30:22.288Z,91.33
2017-11-25T06:31:22.750Z,90.66
2017-11-25T06:34:06.240Z,90.19
2017-11-25T06:35:06.787Z,90.85
2017-11-25T06:37:50.582Z,90.75
2017-11-25T06:38:50.561Z,90.19
2017-11-25T06:41:36.441Z,90.66
2017-11-25T06:42:36.391Z,90.28
2017-11-25T06:43:36.984Z,90.56
2017-11-25T06:44:36.975Z,90.56
2017-11-25T06:45:36.365Z,90.37
2017-11-25T06:46:36.356Z,90.00
2017-11-25T06:47:36.350Z,90.09
2017-11-25T06:48:36.336Z,90.09
2017-11-25T06:49:36.346Z,89.80
2017-11-25T06:50:37.024Z,90.00
2017-11-25T06:51:36.318Z,89.80
2017-11-25T06:52:36.310Z,90.19
2017-11-25T06:53:36.301Z,89.80
2017-11-25T06:54:36.288Z,90.19
2017-11-25T06:55:38.979Z,90.00
2017-11-25T06:56:38.979Z,89.90
2017-11-25T06:57:38.978Z,89.80
2017-11-25T06:58:36.260Z,89.80
2017-11-25T06:59:36.248Z,89.23
2017-11-25T07:00:36.248Z,89.23
2017-11-25T07:01:36.235Z,89.42
2017-11-25T07:02:36.221Z,90.28
2017-11-25T07:03:42.983Z,90.09
2017-11-25T07:04:50.984Z,90.19
2017-11-25T07:05:41.492Z,89.90
2017-11-25T07:06:41.485Z,89.90
2017-11-25T07:07:41.475Z,90.00
2017-11-25T07:08:41.473Z,89.90
2017-11-25T07:09:41.461Z,89.80
2017-11-25T07:10:41.448Z,90.00
2017-11-25T07:11:41.443Z,89.71
2017-11-25T07:12:41.434Z,89.80
2017-11-25T07:13:41.441Z,90.19
2017-11-25T07:14:41.420Z,90.19
2017-11-25T07:15:41.989Z,90.00
2017-11-25T07:16:41.400Z,90.09
2017-11-25T07:17:41.394Z,90.37
2017-11-25T07:18:41.402Z,90.09
2017-11-25T07:19:41.377Z,90.00
2017-11-25T07:20:41.991Z,89.90
2017-11-25T07:21:41.366Z,90.09
2017-11-25T07:22:41.349Z,89.95
2017-11-25T07:23:41.349Z,90.66
2017-11-25T07:24:41.332Z,90.71
2017-11-25T07:25:41.341Z,90.94
2017-11-25T07:26:41.318Z,90.14
2017-11-25T07:27:41.990Z,90.14
2017-11-25T07:28:41.309Z,90.14
2017-11-25T07:29:41.995Z,89.95
2017-11-25T07:30:41.281Z,90.14
2017-11-25T07:31:41.275Z,90.52
2017-11-25T07:32:41.281Z,90.23
2017-11-25T07:33:41.259Z,90.33
2017-11-25T07:34:41.247Z,90.61
2017-11-25T07:35:41.997Z,90.52
2017-11-25T07:36:41.239Z,90.61
2017-11-25T07:37:41.229Z,90.71
2017-11-25T07:38:41.213Z,90.61
2017-11-25T07:39:41.201Z,90.61
2017-11-25T07:40:41.196Z,90.80
2017-11-25T07:41:41.192Z,90.71
2017-11-25T07:42:41.184Z,91.19
2017-11-25T07:43:41.169Z,90.99
2017-11-25T07:44:41.168Z,90.90
2017-11-25T07:45:41.156Z,90.71
2017-11-25T07:46:41.140Z,91.19
2017-11-25T07:47:41.163Z,90.71
2017-11-25T07:48:41.132Z,90.71
2017-11-25T07:49:41.117Z,90.61
2017-11-25T07:50:41.132Z,90.42
2017-11-25T07:51:41.100Z,90.33
2017-11-25T07:52:41.091Z,90.33
2017-11-25T07:53:41.130Z,90.80
2017-11-25T07:54:41.073Z,91.28
2017-11-25T07:55:41.062Z,91.09
2017-11-25T07:56:41.054Z,90.61
2017-11-25T07:57:41.058Z,90.52
2017-11-25T07:58:41.046Z,90.33
2017-11-25T07:59:41.032Z,90.52
2017-11-25T08:00:42.004Z,90.14
2017-11-25T08:01:42.005Z,90.33
2017-11-25T08:02:41.004Z,90.42
2017-11-25T08:03:40.994Z,90.61
2017-11-25T08:04:41.001Z,89.95
2017-11-25T08:05:40.983Z,89.76
2017-11-25T08:06:41.504Z,90.05
2017-11-25T08:07:40.964Z,89.86
2017-11-25T08:08:40.953Z,89.95
2017-11-25T08:09:40.943Z,89.95
2017-11-25T08:10:40.930Z,89.09
2017-11-25T08:11:40.934Z,89.38
2017-11-25T08:12:41.505Z,89.38
2017-11-25T08:13:41.518Z,89.09
2017-11-25T08:14:40.891Z,89.57
2017-11-25T08:15:40.886Z,89.38
2017-11-25T08:16:40.870Z,89.38
2017-11-25T08:17:41.493Z,89.09
2017-11-25T08:18:40.855Z,89.95
2017-11-25T08:19:40.845Z,90.14
2017-11-25T08:20:40.834Z,90.14
2017-11-25T08:21:40.825Z,90.05
2017-11-25T08:22:40.827Z,89.00
2017-11-25T08:23:40.805Z,89.57
2017-11-25T08:24:40.804Z,89.28
2017-11-25T08:25:40.803Z,89.19
2017-11-25T08:26:40.781Z,88.90
2017-11-25T08:27:40.780Z,89.47
2017-11-25T08:28:40.771Z,89.57
2017-11-25T08:29:40.775Z,89.19
2017-11-25T08:30:40.752Z,89.57
2017-11-25T08:31:44.363Z,89.47
2017-11-25T08:32:53.132Z,89.47
2017-11-25T08:33:58.504Z,89.47
2017-11-25T08:34:49.008Z,87.76
2017-11-25T08:35:49.235Z,87.38
2017-11-25T08:36:50.106Z,87.86
2017-11-25T08:38:03.504Z,87.95
2017-11-25T08:38:54.018Z,87.57
2017-11-25T08:39:54.007Z,87.48
2017-11-25T08:40:53.995Z,88.24
2017-11-25T08:41:53.988Z,88.62
2017-11-25T08:42:53.966Z,86.15
2017-11-25T08:43:53.963Z,86.05
2017-11-25T08:44:53.954Z,84.82
2017-11-25T08:46:02.652Z,85.68
2017-11-25T08:46:53.932Z,84.82
2017-11-25T08:47:53.935Z,84.91
2017-11-25T08:48:53.920Z,84.63
2017-11-25T08:49:53.913Z,84.63
2017-11-25T08:50:53.909Z,84.34
2017-11-25T08:51:53.886Z,84.82
2017-11-25T08:52:53.884Z,85.30
2017-11-25T08:53:53.870Z,85.39
2017-11-25T08:54:53.875Z,85.53
2017-11-25T08:55:53.868Z,85.62
2017-11-25T08:56:53.854Z,85.15
2017-11-25T08:57:53.844Z,85.30
2017-11-25T08:58:53.827Z,85.49
2017-11-25T08:59:53.830Z,85.91
2017-11-25T09:00:53.811Z,85.72
2017-11-25T09:01:53.804Z,85.30
2017-11-25T09:02:53.798Z,85.68
2017-11-25T09:03:53.791Z,86.05
2017-11-25T09:04:53.787Z,85.86
2017-11-25T09:05:53.771Z,86.43
2017-11-25T09:06:53.775Z,85.30
2017-11-25T09:07:53.757Z,84.34
2017-11-25T09:08:53.756Z,84.16
2017-11-25T09:09:53.739Z,82.96
2017-11-25T09:10:53.725Z,83.25
2017-11-25T09:11:53.729Z,83.30
2017-11-25T09:12:53.735Z,83.11
2017-11-25T09:13:53.696Z,83.49
2017-11-25T09:14:53.684Z,83.87
2017-11-25T09:15:53.684Z,84.82
2017-11-25T09:16:53.679Z,84.82
2017-11-25T09:17:53.674Z,84.44
2017-11-25T09:18:53.662Z,84.34
2017-11-25T09:19:53.649Z,84.34
2017-11-25T09:20:53.632Z,84.77
2017-11-25T09:21:53.630Z,84.82
2017-11-25T09:22:53.625Z,84.01
2017-11-25T09:23:53.620Z,83.68
2017-11-25T09:24:53.607Z,83.62
2017-11-25T09:25:53.602Z,84.29
2017-11-25T09:26:53.588Z,84.10
2017-11-25T09:27:53.585Z,84.29
2017-11-25T09:28:53.574Z,84.10
2017-11-25T09:29:53.570Z,84.01
2017-11-25T09:30:53.555Z,84.10
2017-11-25T09:31:53.551Z,84.01
2017-11-25T09:32:53.534Z,84.29
2017-11-25T09:33:53.525Z,84.20
2017-11-25T09:34:53.519Z,84.29
2017-11-25T09:35:53.513Z,84.67
2017-11-25T09:36:53.503Z,85.24
2017-11-25T09:37:53.495Z,85.05
2017-11-25T09:38:53.501Z,85.05
2017-11-25T09:39:53.485Z,84.86
2017-11-25T09:40:53.475Z,87.05
2017-11-25T09:41:53.482Z,87.81
2017-11-25T09:42:53.461Z,88.28
2017-11-25T09:43:53.441Z,86.86
2017-11-25T09:44:53.433Z,86.61
2017-11-25T09:45:53.433Z,86.71
2017-11-25T09:46:53.411Z,85.95
2017-11-25T09:47:53.416Z,84.52
2017-11-25T09:48:53.402Z,85.00
2017-11-25T09:49:53.395Z,86.05
2017-11-25T09:50:53.394Z,90.14
2017-11-25T09:51:53.376Z,87.57
2017-11-25T09:52:53.376Z,85.19
2017-11-25T09:53:53.358Z,87.47
2017-11-25T09:54:53.347Z,85.57
2017-11-25T09:55:53.337Z,84.24
2017-11-25T09:56:53.333Z,83.29
2017-11-25T09:57:54.045Z,83.00
2017-11-25T09:58:53.334Z,83.10
2017-11-25T09:59:53.315Z,82.81
2017-11-25T10:00:53.306Z,83.29
2017-11-25T10:01:53.299Z,83.29
2017-11-25T10:02:53.285Z,83.19
2017-11-25T10:03:53.278Z,83.76
2017-11-25T10:04:53.268Z,83.10
2017-11-25T10:05:53.262Z,83.19
2017-11-25T10:06:53.255Z,83.10
2017-11-25T10:07:53.253Z,83.29
2017-11-25T10:08:53.252Z,83.29
2017-11-25T10:09:53.225Z,83.48
2017-11-25T10:10:53.222Z,83.29
2017-11-25T10:11:53.216Z,82.81
2017-11-25T10:12:53.199Z,83.29
2017-11-25T10:13:53.915Z,83.29
2017-11-25T10:14:53.191Z,83.29
2017-11-25T10:15:57.100Z,83.00
2017-11-25T10:16:53.171Z,83.39
2017-11-25T10:17:53.168Z,83.67
2017-11-25T10:18:54.042Z,84.24
2017-11-25T10:19:53.152Z,83.48
2017-11-25T10:20:53.141Z,83.00
2017-11-25T10:21:53.138Z,83.19
2017-11-25T10:22:53.130Z,83.58
2017-11-25T10:23:53.115Z,84.24
2017-11-25T10:24:54.042Z,83.58
2017-11-25T10:25:53.105Z,84.33
2017-11-25T10:26:53.090Z,84.72
2017-11-25T10:27:53.084Z,84.91
2017-11-25T10:28:55.043Z,84.91
2017-11-25T10:29:53.076Z,84.33
2017-11-25T10:30:53.061Z,84.14
2017-11-25T10:31:53.051Z,83.95
2017-11-25T10:32:53.045Z,83.76
2017-11-25T10:33:53.039Z,83.76
2017-11-25T10:34:53.049Z,83.95
2017-11-25T10:35:53.017Z,83.76
2017-11-25T10:36:53.023Z,84.14
2017-11-25T10:37:53.016Z,84.14
2017-11-25T10:38:53.090Z,84.14
2017-11-25T10:39:52.992Z,84.14
2017-11-25T10:40:52.983Z,84.24
2017-11-25T10:41:52.994Z,83.19
2017-11-25T10:42:52.961Z,84.14
2017-11-25T10:43:52.965Z,84.14
2017-11-25T10:44:52.975Z,84.14
2017-11-25T10:45:54.844Z,84.43
2017-11-25T10:46:52.931Z,83.86
2017-11-25T10:47:52.932Z,83.76
2017-11-25T10:48:52.915Z,83.25
2017-11-25T10:49:52.906Z,83.53
2017-11-25T10:50:52.923Z,83.62
2017-11-25T10:51:52.895Z,84.10
2017-11-25T10:52:52.892Z,83.91
2017-11-25T10:53:52.882Z,84.20
2017-11-25T10:54:52.871Z,84.67
2017-11-25T10:55:53.553Z,84.77
2017-11-25T10:56:52.868Z,84.58
2017-11-25T10:57:52.845Z,84.29
2017-11-25T10:58:52.853Z,84.20
2017-11-25T10:59:52.827Z,84.29
2017-11-25T11:00:52.817Z,84.20
2017-11-25T11:01:52.809Z,84.20
2017-11-25T11:02:52.801Z,84.29
2017-11-25T11:03:52.797Z,84.39
2017-11-25T11:04:52.783Z,84.29
2017-11-25T11:05:52.774Z,84.29
2017-11-25T11:06:52.762Z,84.67
2017-11-25T11:07:52.765Z,84.95
2017-11-25T11:08:52.755Z,85.15
2017-11-25T11:09:52.746Z,85.05
2017-11-25T11:10:52.738Z,84.86
2017-11-25T11:11:52.731Z,84.95
2017-11-25T11:12:52.719Z,84.58
2017-11-25T11:13:52.698Z,84.48
2017-11-25T11:14:04.727Z,84.58
2017-11-25T11:15:52.696Z,84.77
2017-11-25T11:16:52.686Z,84.86
2017-11-25T11:17:52.683Z,84.58
2017-11-25T11:18:55.562Z,84.10
2017-11-25T11:19:52.663Z,83.72
2017-11-25T11:20:52.654Z,83.62
2017-11-25T11:21:52.644Z,83.72
2017-11-25T11:22:52.636Z,84.39
2017-11-25T11:23:52.631Z,83.91
2017-11-25T11:24:52.629Z,83.53
2017-11-25T11:25:52.610Z,83.06
2017-11-25T11:26:52.602Z,82.96
2017-11-25T11:27:52.593Z,83.15
2017-11-25T11:28:52.585Z,83.25
2017-11-25T11:29:52.577Z,83.25
2017-11-25T11:30:52.572Z,82.96
2017-11-25T11:31:52.573Z,83.29
2017-11-25T11:32:52.561Z,83.39
2017-11-25T11:33:52.548Z,83.34
2017-11-25T11:34:52.540Z,83.39
2017-11-25T11:35:52.525Z,83.58
2017-11-25T11:36:52.525Z,84.14
2017-11-25T11:37:52.515Z,84.24
2017-11-25T11:38:52.509Z,83.67
2017-11-25T11:39:52.499Z,84.24
2017-11-25T11:40:52.490Z,84.43
2017-11-25T11:41:52.479Z,84.05
2017-11-25T11:42:52.480Z,83.67
2017-11-25T11:43:52.464Z,84.14
2017-11-25T11:44:52.452Z,84.33
2017-11-25T11:45:52.446Z,84.05
2017-11-25T11:46:52.442Z,84.14
2017-11-25T11:47:52.432Z,83.67
2017-11-25T11:48:52.439Z,83.48
2017-11-25T11:49:52.417Z,83.76
2017-11-25T11:50:53.075Z,83.76
2017-11-25T11:51:52.405Z,84.14
2017-11-25T11:52:52.399Z,84.14
2017-11-25T11:53:52.377Z,84.14
2017-11-25T11:54:52.382Z,84.05
2017-11-25T11:55:52.360Z,83.67
2017-11-25T11:56:52.355Z,84.43
2017-11-25T11:57:52.379Z,84.81
2017-11-25T11:58:52.347Z,84.72
2017-11-25T11:59:52.337Z,84.91
2017-11-25T12:00:52.327Z,84.91
2017-11-25T12:01:52.381Z,84.91
2017-11-25T12:02:52.320Z,84.81
2017-11-25T12:03:52.306Z,84.72
2017-11-25T12:04:52.307Z,84.91
2017-11-25T12:05:52.298Z,84.81
2017-11-25T12:06:52.769Z,84.72
2017-11-25T12:07:52.272Z,84.91
2017-11-25T12:08:52.277Z,85.00
2017-11-25T12:09:52.258Z,84.33
2017-11-25T12:10:52.254Z,84.81
2017-11-25T12:11:52.242Z,84.24
2017-11-25T12:12:52.235Z,84.14
2017-11-25T12:13:52.234Z,84.14
2017-11-25T12:14:52.225Z,83.76
2017-11-25T12:15:52.212Z,84.33
2017-11-25T12:16:52.204Z,84.33
2017-11-25T12:17:52.206Z,84.91
2017-11-25T12:18:52.191Z,84.62
2017-11-25T12:19:52.221Z,84.81
2017-11-25T12:20:52.171Z,84.81
2017-11-25T12:21:52.172Z,84.47
2017-11-25T12:22:52.165Z,85.04
2017-11-25T12:23:52.153Z,84.95
2017-11-25T12:24:52.145Z,84.85
2017-11-25T12:25:52.142Z,84.09
2017-11-25T12:26:52.132Z,84.09
2017-11-25T12:27:52.124Z,83.23
2017-11-25T12:28:52.113Z,82.95
2017-11-25T12:29:52.107Z,82.67
2017-11-25T12:30:52.104Z,83.42
2017-11-25T12:31:52.097Z,83.14
2017-11-25T12:32:52.083Z,82.57
2017-11-25T12:33:52.077Z,82.38
2017-11-25T12:34:52.074Z,81.81
2017-11-25T12:35:52.062Z,81.14
2017-11-25T12:36:52.063Z,81.33
2017-11-25T12:37:52.057Z,80.86
2017-11-25T12:38:52.043Z,80.57
2017-11-25T12:39:52.031Z,81.52
2017-11-25T12:40:52.024Z,81.71
2017-11-25T12:41:52.016Z,82.09
2017-11-25T12:42:52.011Z,82.38
2017-11-25T12:43:52.015Z,82.57
2017-11-25T12:44:51.997Z,82.67
2017-11-25T12:45:51.995Z,82.95
2017-11-25T12:46:51.985Z,82.67
2017-11-25T12:47:51.991Z,82.43
2017-11-25T12:48:51.967Z,82.71
2017-11-25T12:49:51.950Z,82.05
2017-11-25T12:50:51.946Z,81.86
2017-11-25T12:51:51.941Z,81.48
2017-11-25T12:52:54.630Z,81.01
2017-11-25T12:53:51.926Z,81.01
2017-11-25T12:54:52.611Z,81.01
2017-11-25T12:55:51.908Z,81.20
2017-11-25T12:56:51.909Z,80.44
2017-11-25T12:57:51.896Z,80.91
2017-11-25T12:58:51.896Z,81.38
2017-11-25T12:59:51.883Z,81.10
2017-11-25T13:00:51.877Z,81.38
2017-11-25T13:01:51.870Z,81.01
2017-11-25T13:02:51.858Z,80.63
2017-11-25T13:03:51.845Z,80.53
2017-11-25T13:04:51.854Z,80.44
2017-11-25T13:05:51.845Z,80.24
2017-11-25T13:06:51.820Z,80.10
2017-11-25T13:07:52.602Z,80.53
2017-11-25T13:08:51.810Z,80.10
2017-11-25T13:09:51.800Z,79.81
2017-11-25T13:10:51.813Z,79.81
2017-11-25T13:11:51.792Z,80.29
2017-11-25T13:12:51.783Z,80.00
2017-11-25T13:13:51.768Z,79.62
2017-11-25T13:14:51.765Z,79.91
2017-11-25T13:15:51.767Z,80.38
2017-11-25T13:16:51.753Z,80.00
2017-11-25T13:17:51.752Z,80.19
2017-11-25T13:18:51.734Z,80.00
2017-11-25T13:19:51.736Z,80.66
2017-11-25T13:20:51.727Z,80.38
2017-11-25T13:21:51.718Z,81.05
2017-11-25T13:22:51.700Z,80.24
2017-11-25T13:23:51.690Z,81.01
2017-11-25T13:24:51.691Z,80.76
2017-11-25T13:25:51.685Z,81.01
2017-11-25T13:26:51.678Z,81.29
2017-11-25T13:27:51.675Z,81.20
2017-11-25T13:28:51.660Z,81.38
2017-11-25T13:29:51.652Z,80.72
2017-11-25T13:30:51.646Z,80.82
2017-11-25T13:31:51.640Z,81.01
2017-11-25T13:32:51.635Z,81.67
2017-11-25T13:33:51.628Z,81.38